createdAt,value
2022-11-05T00:02:42.962Z,14.30
2022-11-05T00:05:30.977Z,14.30
2022-11-05T00:08:19.257Z,14.30
2022-11-05T00:10:47.114Z,14.30
2022-11-05T00:13:33.782Z,14.30
2022-11-05T00:16:21.093Z,14.30
2022-11-05T00:19:06.721Z,14.30
2022-11-05T00:21:54.057Z,14.30
2022-11-05T00:24:39.932Z,14.20
2022-11-05T00:27:07.882Z,14.20
2022-11-05T00:29:36.597Z,14.20
2022-11-05T00:32:05.929Z,14.10
2022-11-05T00:34:33.525Z,14.10
2022-11-05T00:37:01.152Z,14.10
2022-11-05T00:39:28.723Z,14.10
2022-11-05T00:42:14.960Z,14.10
2022-11-05T00:45:01.209Z,14.10
2022-11-05T00:47:49.476Z,14.00
2022-11-05T00:50:17.544Z,14.00
2022-11-05T00:52:57.359Z,14.00
2022-11-05T00:55:28.466Z,14.00
2022-11-05T00:57:56.937Z,14.00
2022-11-05T01:00:26.316Z,13.90
2022-11-05T01:02:58.216Z,14.00
2022-11-05T01:05:26.871Z,13.90
2022-11-05T01:07:54.728Z,13.90
2022-11-05T01:10:22.886Z,13.90
2022-11-05T01:12:50.746Z,13.90
2022-11-05T01:15:19.906Z,13.90
2022-11-05T01:17:47.852Z,13.90
2022-11-05T01:20:17.152Z,13.90
2022-11-05T01:22:44.776Z,13.90
2022-11-05T01:25:12.324Z,14.00
2022-11-05T01:27:40.114Z,13.90
2022-11-05T01:30:09.252Z,13.90
2022-11-05T01:32:40.460Z,13.80
2022-11-05T01:35:11.011Z,13.80
2022-11-05T01:37:40.189Z,13.80
2022-11-05T01:40:10.587Z,13.80
2022-11-05T01:42:38.381Z,13.70
2022-11-05T01:45:13.228Z,13.70
2022-11-05T01:48:01.926Z,13.70
2022-11-05T01:50:34.992Z,13.60
2022-11-05T01:53:10.100Z,13.70
2022-11-05T01:55:41.940Z,13.60
2022-11-05T01:58:14.541Z,13.60
2022-11-05T02:00:43.696Z,13.60
2022-11-05T02:03:13.364Z,13.50
2022-11-05T02:05:42.171Z,13.40
2022-11-05T02:08:18.114Z,13.50
2022-11-05T02:10:46.625Z,13.40
2022-11-05T02:13:14.290Z,13.40
2022-11-05T02:15:54.722Z,13.40
2022-11-05T02:18:33.815Z,13.30
2022-11-05T02:21:28.586Z,13.40
2022-11-05T02:24:30.866Z,13.30
2022-11-05T02:27:16.428Z,13.30
2022-11-05T02:30:11.723Z,13.30
2022-11-05T02:33:11.291Z,13.30
2022-11-05T02:36:02.404Z,13.30
2022-11-05T02:38:40.735Z,13.30
2022-11-05T02:41:16.956Z,13.30
2022-11-05T02:43:52.997Z,13.30
2022-11-05T02:46:32.161Z,13.20
2022-11-05T02:49:09.833Z,13.20
2022-11-05T02:51:46.231Z,13.20
2022-11-05T02:54:20.653Z,13.20
2022-11-05T02:56:51.832Z,13.20
2022-11-05T02:59:19.627Z,13.10
2022-11-05T03:01:48.449Z,13.00
2022-11-05T03:04:20.277Z,13.10
2022-11-05T03:07:21.316Z,13.00
2022-11-05T03:10:11.885Z,13.00
2022-11-05T03:12:51.224Z,12.90
2022-11-05T03:15:33.367Z,12.90
2022-11-05T03:18:08.504Z,12.90
2022-11-05T03:20:45.236Z,12.90
2022-11-05T03:23:16.514Z,12.90
2022-11-05T03:25:48.036Z,12.90
2022-11-05T03:28:17.564Z,12.90
2022-11-05T03:30:58.175Z,12.80
2022-11-05T03:33:28.865Z,12.80
2022-11-05T03:36:02.047Z,12.80
2022-11-05T03:38:34.315Z,12.80
2022-11-05T03:41:06.624Z,12.80
2022-11-05T03:43:38.255Z,12.80
2022-11-05T03:46:10.135Z,12.80
2022-11-05T03:48:41.967Z,12.80
2022-11-05T03:51:19.854Z,12.80
2022-11-05T03:53:51.147Z,12.80
2022-11-05T03:56:25.836Z,12.70
2022-11-05T03:58:58.934Z,12.60
2022-11-05T04:01:27.813Z,12.70
2022-11-05T04:03:56.004Z,12.60
2022-11-05T04:06:44.024Z,12.50
2022-11-05T04:09:30.595Z,12.50
2022-11-05T04:12:16.824Z,12.50
2022-11-05T04:14:44.815Z,12.50
2022-11-05T04:17:12.664Z,12.40
2022-11-05T04:20:00.898Z,12.40
2022-11-05T04:22:50.844Z,12.40
2022-11-05T04:25:19.857Z,12.30
2022-11-05T04:27:48.154Z,12.30
2022-11-05T04:30:21.927Z,12.30
2022-11-05T04:33:01.003Z,12.20
2022-11-05T04:35:31.204Z,12.20
2022-11-05T04:38:00.766Z,12.20
2022-11-05T04:40:29.386Z,12.10
2022-11-05T04:42:57.655Z,12.10
2022-11-05T04:45:27.296Z,12.10
2022-11-05T04:47:55.476Z,12.00
2022-11-05T04:50:23.634Z,12.00
2022-11-05T04:52:51.703Z,12.00
2022-11-05T04:55:21.514Z,11.90
2022-11-05T04:57:49.834Z,11.80
2022-11-05T05:00:18.694Z,11.80
2022-11-05T05:02:46.628Z,11.80
2022-11-05T05:05:14.844Z,11.70
2022-11-05T05:07:43.094Z,11.70
2022-11-05T05:10:11.634Z,11.60
2022-11-05T05:12:41.114Z,11.50
2022-11-05T05:15:09.524Z,11.50
2022-11-05T05:17:37.253Z,11.40
2022-11-05T05:20:24.512Z,11.50
2022-11-05T05:22:53.371Z,11.40
2022-11-05T05:25:21.284Z,11.40
2022-11-05T05:27:50.923Z,11.50
2022-11-05T05:30:19.070Z,11.40
2022-11-05T05:32:46.943Z,11.40
2022-11-05T05:35:14.921Z,11.50
2022-11-05T05:37:43.074Z,11.60
2022-11-05T05:40:12.102Z,11.60
2022-11-05T05:42:43.103Z,11.50
2022-11-05T05:45:13.718Z,11.50
2022-11-05T05:47:41.668Z,11.60
2022-11-05T05:50:10.148Z,11.60
2022-11-05T05:52:40.989Z,11.60
2022-11-05T05:55:12.779Z,11.50
2022-11-05T06:00:15.910Z,11.40
2022-11-05T06:02:43.992Z,11.40
2022-11-05T06:05:11.899Z,11.50
2022-11-05T06:07:39.916Z,11.40
2022-11-05T06:10:08.317Z,11.40
2022-11-05T06:12:36.380Z,11.40
2022-11-05T06:15:04.917Z,11.40
2022-11-05T06:17:35.293Z,11.40
2022-11-05T06:20:03.410Z,11.50
2022-11-05T06:22:31.070Z,11.50
2022-11-05T06:24:58.730Z,11.50
2022-11-05T06:27:26.402Z,11.50
2022-11-05T06:29:54.209Z,11.40
2022-11-05T06:32:21.949Z,11.40
2022-11-05T06:34:51.067Z,11.50
2022-11-05T06:37:18.859Z,11.60
2022-11-05T06:39:46.931Z,11.60
2022-11-05T06:42:19.058Z,11.60
2022-11-05T06:44:47.341Z,11.50
2022-11-05T06:47:15.182Z,11.50
2022-11-05T06:49:42.839Z,11.60
2022-11-05T06:52:12.131Z,11.70
2022-11-05T06:54:41.062Z,11.70
2022-11-05T06:57:12.096Z,11.70
2022-11-05T06:59:40.180Z,11.80
2022-11-05T07:02:10.564Z,11.70
2022-11-05T07:04:38.458Z,11.70
2022-11-05T07:07:06.140Z,11.80
2022-11-05T07:09:38.853Z,11.70
2022-11-05T07:12:07.748Z,11.80
2022-11-05T07:14:35.771Z,11.80
2022-11-05T07:17:03.723Z,12.20
2022-11-05T07:19:31.880Z,12.50
2022-11-05T07:21:59.755Z,12.70
2022-11-05T07:24:27.843Z,12.90
2022-11-05T07:26:57.282Z,13.00
2022-11-05T07:29:25.302Z,13.10
2022-11-05T07:31:53.132Z,13.20
2022-11-05T07:34:21.120Z,13.30
2022-11-05T07:36:48.949Z,13.30
2022-11-05T07:39:17.282Z,13.30
2022-11-05T07:41:45.241Z,13.40
2022-11-05T07:44:14.956Z,13.40
2022-11-05T07:46:43.059Z,13.40
2022-11-05T07:49:11.070Z,13.50
2022-11-05T07:51:39.300Z,13.50
2022-11-05T07:54:07.269Z,13.60
2022-11-05T07:56:35.390Z,13.60
2022-11-05T07:59:03.300Z,13.60
2022-11-05T08:01:33.782Z,13.70
2022-11-05T08:04:02.152Z,13.70
2022-11-05T08:06:30.124Z,13.60
2022-11-05T08:08:58.119Z,13.60
2022-11-05T08:11:26.029Z,13.50
2022-11-05T08:13:54.059Z,13.60
2022-11-05T08:16:22.012Z,13.90
2022-11-05T08:18:51.517Z,14.00
2022-11-05T08:21:19.498Z,14.10
2022-11-05T08:23:47.611Z,14.10
2022-11-05T08:26:15.490Z,14.10
2022-11-05T08:28:43.482Z,14.20
2022-11-05T08:31:11.348Z,14.20
2022-11-05T08:33:39.389Z,14.30
2022-11-05T08:36:08.939Z,14.40
2022-11-05T08:38:36.908Z,14.40
2022-11-05T08:41:05.681Z,14.50
2022-11-05T08:43:33.710Z,14.50
2022-11-05T08:46:01.903Z,14.40
2022-11-05T08:48:29.961Z,14.50
2022-11-05T08:51:02.098Z,14.60
2022-11-05T08:53:31.641Z,14.70
2022-11-05T08:55:59.912Z,14.80
2022-11-05T08:58:27.929Z,15.00
2022-11-05T09:00:58.990Z,15.20
2022-11-05T09:03:30.188Z,15.30
2022-11-05T09:05:58.045Z,15.40
2022-11-05T09:08:26.048Z,15.60
2022-11-05T09:10:55.366Z,15.70
2022-11-05T09:13:23.584Z,15.80
2022-11-05T09:15:51.914Z,15.90
2022-11-05T09:18:20.812Z,16.00
2022-11-05T09:20:48.872Z,16.10
2022-11-05T09:23:17.153Z,16.20
2022-11-05T09:25:45.395Z,16.20
2022-11-05T09:28:17.423Z,16.20
2022-11-05T09:30:47.630Z,16.20
2022-11-05T09:33:17.030Z,16.20
2022-11-05T09:35:45.020Z,16.30
2022-11-05T09:38:13.220Z,16.50
2022-11-05T09:40:47.388Z,16.60
2022-11-05T09:43:20.736Z,16.80
2022-11-05T09:45:51.730Z,16.90
2022-11-05T09:48:22.952Z,17.00
2022-11-05T09:50:52.622Z,17.10
2022-11-05T09:53:23.617Z,17.20
2022-11-05T09:55:54.194Z,17.40
2022-11-05T09:58:39.665Z,17.50
2022-11-05T10:01:12.636Z,17.70
2022-11-05T10:03:46.182Z,17.90
2022-11-05T10:06:20.744Z,18.10
2022-11-05T10:08:53.150Z,18.20
2022-11-05T10:11:28.528Z,18.20
2022-11-05T10:14:02.510Z,18.30
2022-11-05T10:16:32.809Z,18.40
2022-11-05T10:19:07.509Z,18.40
2022-11-05T10:22:04.211Z,18.50
2022-11-05T10:24:23.928Z,18.70
2022-11-05T10:26:54.030Z,18.70
2022-11-05T10:29:29.497Z,18.90
2022-11-05T10:31:58.720Z,19.00
2022-11-05T10:34:30.665Z,18.80
2022-11-05T10:36:59.625Z,18.70
2022-11-05T10:39:30.041Z,18.90
2022-11-05T10:42:15.402Z,19.00
2022-11-05T10:45:02.273Z,19.10
2022-11-05T10:47:43.880Z,19.10
2022-11-05T10:50:15.954Z,19.10
2022-11-05T10:52:54.139Z,19.00
2022-11-05T10:55:25.319Z,19.00
2022-11-05T10:57:53.701Z,19.00
2022-11-05T11:00:26.519Z,19.00
2022-11-05T11:02:57.642Z,18.90
2022-11-05T11:05:30.163Z,19.00
2022-11-05T11:08:02.574Z,19.00
2022-11-05T11:10:34.826Z,19.00
2022-11-05T11:13:03.672Z,19.00
2022-11-05T11:15:33.123Z,19.20
2022-11-05T11:18:25.368Z,19.30
2022-11-05T11:20:53.516Z,19.30
2022-11-05T11:23:21.538Z,19.40
2022-11-05T11:25:53.368Z,19.50
2022-11-05T11:28:24.736Z,19.50
2022-11-05T11:31:03.577Z,19.60
2022-11-05T11:33:33.636Z,19.70
2022-11-05T11:36:01.857Z,19.80
2022-11-05T11:38:31.807Z,19.80
2022-11-05T11:41:19.105Z,19.80
2022-11-05T11:43:47.248Z,19.90
2022-11-05T11:46:42.307Z,20.00
2022-11-05T11:49:31.605Z,20.10
2022-11-05T11:52:03.845Z,20.10
2022-11-05T11:54:34.092Z,20.10
2022-11-05T11:57:02.325Z,20.20
2022-11-05T12:00:02.016Z,20.30
2022-11-05T12:03:00.494Z,20.30
2022-11-05T12:05:40.844Z,20.40
2022-11-05T12:08:35.526Z,20.40
2022-11-05T12:11:09.284Z,20.40
2022-11-05T12:13:56.184Z,20.60
2022-11-05T12:16:37.144Z,20.70
2022-11-05T12:19:17.015Z,20.70
2022-11-05T12:21:54.665Z,20.70
2022-11-05T12:24:52.144Z,20.70
2022-11-05T12:27:33.833Z,20.90
2022-11-05T12:30:06.056Z,20.90
2022-11-05T12:33:11.763Z,21.10
2022-11-05T12:35:57.743Z,21.10
2022-11-05T12:41:20.506Z,21.20
2022-11-05T12:44:02.044Z,21.30
2022-11-05T12:46:36.766Z,21.20
2022-11-05T12:49:34.616Z,21.10
2022-11-05T12:52:19.422Z,21.10
2022-11-05T12:55:03.264Z,21.10
2022-11-05T12:57:36.229Z,21.10
2022-11-05T13:00:08.605Z,21.10
2022-11-05T13:02:41.342Z,21.10
2022-11-05T13:05:15.739Z,21.20
2022-11-05T13:07:52.189Z,21.20
2022-11-05T13:10:27.455Z,21.20
2022-11-05T13:13:04.096Z,21.20
2022-11-05T13:15:39.220Z,21.10
2022-11-05T13:18:13.739Z,21.20
2022-11-05T13:20:49.001Z,21.20
2022-11-05T13:23:26.390Z,21.20
2022-11-05T13:25:59.724Z,21.20
2022-11-05T13:28:35.775Z,21.30
2022-11-05T13:31:09.585Z,21.20
2022-11-05T13:33:40.403Z,21.20
2022-11-05T13:36:31.677Z,21.20
2022-11-05T13:39:09.449Z,21.20
2022-11-05T13:42:05.170Z,21.20
2022-11-05T13:44:56.718Z,21.20
2022-11-05T13:47:40.525Z,21.20
2022-11-05T13:50:57.806Z,21.20
2022-11-05T13:53:52.539Z,21.20
2022-11-05T13:56:33.727Z,21.10
2022-11-05T13:59:21.673Z,20.90
2022-11-05T14:01:53.538Z,20.80
2022-11-05T14:04:31.103Z,20.60
2022-11-05T14:07:09.024Z,20.40
2022-11-05T14:09:38.369Z,20.30
2022-11-05T14:12:17.953Z,20.20
2022-11-05T14:14:58.703Z,20.10
2022-11-05T14:17:32.584Z,20.00
2022-11-05T14:20:54.617Z,19.90
2022-11-05T14:23:38.992Z,19.90
2022-11-05T14:26:16.005Z,19.80
2022-11-05T14:28:47.885Z,19.80
2022-11-05T14:32:02.486Z,19.90
2022-11-05T14:34:43.798Z,19.80
2022-11-05T14:37:27.703Z,19.70
2022-11-05T14:39:56.860Z,19.50
2022-11-05T14:42:27.896Z,19.60
2022-11-05T14:45:20.411Z,19.60
2022-11-05T14:47:53.874Z,19.60
2022-11-05T14:50:27.474Z,19.50
2022-11-05T14:52:58.393Z,19.50
2022-11-05T14:55:29.915Z,19.50
2022-11-05T14:58:26.852Z,19.50
2022-11-05T15:00:57.260Z,19.40
2022-11-05T15:03:46.890Z,19.40
2022-11-05T15:06:25.504Z,19.50
2022-11-05T15:09:32.741Z,20.40
2022-11-05T15:12:09.420Z,21.80
2022-11-05T15:14:40.971Z,22.80
2022-11-05T15:17:22.201Z,23.40
2022-11-05T15:19:52.566Z,24.00
2022-11-05T15:22:40.949Z,24.30
2022-11-05T15:25:18.113Z,24.50
2022-11-05T15:27:59.382Z,24.80
2022-11-05T15:30:27.764Z,24.80
2022-11-05T15:33:09.521Z,24.20
2022-11-05T15:35:42.600Z,22.50
2022-11-05T15:38:30.999Z,21.50
2022-11-05T15:41:02.062Z,20.70
2022-11-05T15:43:30.506Z,20.30
2022-11-05T15:46:01.107Z,19.90
2022-11-05T15:48:30.776Z,19.70
2022-11-05T15:50:58.744Z,19.40
2022-11-05T15:54:08.430Z,19.20
2022-11-05T15:56:29.579Z,19.00
2022-11-05T15:59:01.811Z,19.00
2022-11-05T16:01:31.933Z,18.80
2022-11-05T16:04:09.606Z,18.70
2022-11-05T16:06:39.788Z,18.60
2022-11-05T16:09:08.169Z,18.50
2022-11-05T16:11:36.048Z,18.60
2022-11-05T16:14:18.797Z,18.50
2022-11-05T16:16:47.168Z,18.30
2022-11-05T16:19:42.149Z,18.30
2022-11-05T16:22:10.119Z,18.10
2022-11-05T16:24:38.316Z,18.00
2022-11-05T16:27:06.937Z,18.00
2022-11-05T16:29:36.511Z,17.90
2022-11-05T16:32:06.809Z,17.80
2022-11-05T16:34:39.137Z,17.80
2022-11-05T16:37:12.690Z,17.70
2022-11-05T16:39:40.815Z,17.60
2022-11-05T16:42:36.918Z,17.60
2022-11-05T16:45:06.381Z,17.50
2022-11-05T16:47:34.290Z,17.50
2022-11-05T16:50:02.439Z,17.50
2022-11-05T16:52:31.808Z,17.50
2022-11-05T16:54:59.907Z,17.50
2022-11-05T16:57:30.717Z,17.50
2022-11-05T17:00:00.081Z,17.40
2022-11-05T17:02:28.398Z,17.40
2022-11-05T17:04:56.509Z,17.40
2022-11-05T17:07:24.395Z,17.50
2022-11-05T17:09:54.532Z,17.50
2022-11-05T17:12:22.833Z,17.50
2022-11-05T17:14:50.802Z,17.50
2022-11-05T17:17:18.931Z,17.40
2022-11-05T17:19:47.472Z,17.30
2022-11-05T17:22:15.483Z,17.30
2022-11-05T17:24:43.493Z,17.20
2022-11-05T17:27:13.253Z,17.20
2022-11-05T17:29:41.243Z,17.10
2022-11-05T17:32:09.467Z,17.00
2022-11-05T17:34:37.523Z,16.90
2022-11-05T17:37:05.614Z,16.90
2022-11-05T17:39:50.802Z,17.00
2022-11-05T17:42:20.412Z,17.00
2022-11-05T17:44:48.463Z,16.90
2022-11-05T17:47:16.613Z,16.90
2022-11-05T17:49:44.754Z,16.90
2022-11-05T17:52:12.792Z,16.90
2022-11-05T17:54:41.233Z,16.80
2022-11-05T17:57:09.302Z,16.80
2022-11-05T17:59:39.070Z,16.70
2022-11-05T18:02:09.809Z,16.70
2022-11-05T18:04:38.422Z,16.60
2022-11-05T18:07:06.693Z,16.60
2022-11-05T18:09:34.782Z,16.40
2022-11-05T18:12:02.904Z,16.40
2022-11-05T18:14:31.082Z,16.50
2022-11-05T18:17:00.886Z,16.50
2022-11-05T18:19:29.424Z,16.40
2022-11-05T18:21:57.622Z,16.40
2022-11-05T18:24:25.956Z,16.30
2022-11-05T18:26:54.211Z,16.20
2022-11-05T18:29:22.368Z,16.10
2022-11-05T18:31:50.419Z,16.10
2022-11-05T18:34:20.136Z,16.10
2022-11-05T18:36:52.051Z,16.30
2022-11-05T18:39:23.295Z,16.40
2022-11-05T18:41:51.247Z,16.40
2022-11-05T18:44:23.097Z,16.40
2022-11-05T18:46:57.952Z,16.30
2022-11-05T18:49:28.565Z,16.30
2022-11-05T18:51:56.623Z,16.20
2022-11-05T18:54:24.753Z,16.20
2022-11-05T18:56:52.846Z,16.20
2022-11-05T18:59:39.161Z,15.90
2022-11-05T19:02:08.774Z,15.60
2022-11-05T19:04:38.766Z,15.90
2022-11-05T19:07:07.671Z,15.70
2022-11-05T19:09:36.719Z,15.70
2022-11-05T19:12:06.619Z,15.60
2022-11-05T19:14:35.108Z,15.40
2022-11-05T19:17:03.200Z,15.50
2022-11-05T19:19:31.320Z,15.70
2022-11-05T19:22:00.775Z,15.80
2022-11-05T19:24:28.923Z,16.00
2022-11-05T19:26:57.397Z,16.10
2022-11-05T19:29:25.410Z,16.20
2022-11-05T19:31:53.609Z,16.20
2022-11-05T19:34:21.508Z,16.20
2022-11-05T19:36:50.011Z,16.10
2022-11-05T19:39:19.320Z,16.20
2022-11-05T19:41:49.296Z,16.20
2022-11-05T19:44:17.217Z,16.10
2022-11-05T19:46:45.332Z,16.10
2022-11-05T19:49:13.322Z,16.20
2022-11-05T19:51:41.507Z,16.20
2022-11-05T19:54:10.348Z,15.90
2022-11-05T19:56:39.787Z,15.80
2022-11-05T19:59:07.771Z,15.70
2022-11-05T20:01:36.298Z,15.70
2022-11-05T20:04:06.044Z,15.70
2022-11-05T20:06:38.249Z,15.80
2022-11-05T20:09:24.248Z,15.90
2022-11-05T20:11:55.052Z,16.00
2022-11-05T20:14:24.155Z,16.00
2022-11-05T20:16:52.953Z,15.80
2022-11-05T20:19:23.032Z,15.90
2022-11-05T20:21:51.388Z,16.00
2022-11-05T20:24:24.628Z,16.00
2022-11-05T20:26:56.399Z,16.00
2022-11-05T20:29:30.503Z,15.70
2022-11-05T20:32:04.501Z,15.80
2022-11-05T20:34:33.205Z,15.80
2022-11-05T20:37:01.524Z,15.60
2022-11-05T20:39:29.885Z,15.80
2022-11-05T20:42:00.845Z,15.80
2022-11-05T20:44:29.138Z,15.90
2022-11-05T20:46:58.053Z,15.60
2022-11-05T20:49:26.526Z,15.60
2022-11-05T20:51:54.674Z,15.30
2022-11-05T20:54:22.919Z,15.20
2022-11-05T20:56:51.064Z,15.50
2022-11-05T20:59:21.085Z,15.60
2022-11-05T21:01:50.534Z,15.70
2022-11-05T21:04:19.345Z,15.70
2022-11-05T21:06:47.632Z,15.50
2022-11-05T21:09:15.613Z,15.40
2022-11-05T21:12:01.832Z,15.40
2022-11-05T21:14:31.227Z,15.40
2022-11-05T21:16:59.241Z,15.10
2022-11-05T21:19:27.128Z,15.10
2022-11-05T21:21:55.087Z,14.80
2022-11-05T21:24:22.993Z,14.80
2022-11-05T21:26:51.189Z,14.80
2022-11-05T21:29:19.918Z,14.90
2022-11-05T21:31:50.187Z,14.90
2022-11-05T21:34:19.248Z,15.00
2022-11-05T21:36:47.540Z,14.80
2022-11-05T21:39:15.677Z,14.60
2022-11-05T21:41:43.709Z,14.00
2022-11-05T21:44:11.771Z,13.20
2022-11-05T21:46:40.378Z,12.60
2022-11-05T21:49:10.047Z,12.80
2022-11-05T21:51:57.088Z,13.60
2022-11-05T21:54:58.068Z,13.90
2022-11-05T21:57:44.838Z,14.00
2022-11-05T22:00:13.399Z,13.90
2022-11-05T22:02:41.221Z,13.80
2022-11-05T22:05:10.823Z,13.90
2022-11-05T22:07:40.999Z,14.00
2022-11-05T22:10:15.935Z,14.00
2022-11-05T22:12:48.988Z,13.80
2022-11-05T22:15:17.271Z,13.90
2022-11-05T22:17:47.138Z,13.80
2022-11-05T22:20:18.149Z,13.80
2022-11-05T22:22:47.071Z,13.80
2022-11-05T22:25:15.480Z,13.60
2022-11-05T22:27:44.353Z,13.60
2022-11-05T22:30:14.407Z,13.60
2022-11-05T22:32:43.069Z,13.60
2022-11-05T22:35:11.683Z,13.70
2022-11-05T22:37:41.222Z,13.60
2022-11-05T22:40:09.912Z,13.50
2022-11-05T22:42:38.850Z,13.50
2022-11-05T22:45:07.656Z,13.30
2022-11-05T22:47:35.794Z,13.10
2022-11-05T22:50:04.047Z,13.00
2022-11-05T22:52:33.592Z,13.10
2022-11-05T22:55:05.411Z,12.90
2022-11-05T22:57:33.322Z,12.80
2022-11-05T23:00:01.183Z,12.90
2022-11-05T23:02:29.457Z,12.80
2022-11-05T23:04:57.482Z,13.10
2022-11-05T23:07:44.459Z,13.00
2022-11-05T23:10:43.299Z,12.90
2022-11-05T23:13:11.834Z,12.90
2022-11-05T23:15:58.766Z,13.10
2022-11-05T23:18:45.926Z,13.20
2022-11-05T23:21:32.090Z,13.10
2022-11-05T23:24:06.462Z,13.00
2022-11-05T23:26:50.745Z,12.60
2022-11-05T23:29:19.829Z,12.40
2022-11-05T23:32:06.875Z,12.60
2022-11-05T23:34:34.903Z,12.70
2022-11-05T23:37:21.895Z,12.80
2022-11-05T23:39:50.815Z,12.90
2022-11-05T23:42:42.733Z,12.90
2022-11-05T23:45:30.645Z,12.70
2022-11-05T23:48:17.675Z,12.80
2022-11-05T23:50:49.106Z,12.70
2022-11-05T23:53:17.724Z,12.60
2022-11-05T23:55:45.991Z,12.50
2022-11-05T23:58:17.133Z,12.60
